Time;durP1;ratioP1;P1;durP2;ratioP2;P2;SDS_P1;SDS_P2;PMS_P1;PMS_P2;Temp;Humidity;BMP_temperature;BMP_pressure;BME280_temperature;BME280_humidity;BME280_pressure;Samples;Min_cycle;Max_cycle;Signal;HPM_P1;HPM_P2
2024/01/24 00:01:34;;;;;;;0.10;0.10;;;;;;;-145.06;100.00;57977.22;10408685;28;20429;-72
2024/01/24 00:06:37;;;;;;;0.10;0.10;;;;;;;-145.06;100.00;59725.06;10406574;28;20094;-72
2024/01/24 00:11:37;;;;;;;0.10;0.10;;;;;;;-145.06;100.00;59276.88;10407884;28;20021;-72
2024/01/24 00:16:39;;;;;;;0.00;0.00;;;;;;;-145.06;100.00;59126.81;10408114;28;20021;-72
2024/01/24 00:21:39;;;;;;;0.03;0.03;;;;;;;-145.06;100.00;59331.63;10406110;28;20025;-72
2024/01/24 00:26:39;;;;;;;0.00;0.00;;;;;;;-145.06;100.00;62577.66;10407310;28;20024;-72
2024/01/24 00:31:39;;;;;;;0.10;0.10;;;;;;;-145.06;100.00;62056.09;10405345;28;20025;-72
2024/01/24 00:36:40;;;;;;;0.10;0.10;;;;;;;-145.06;100.00;60224.03;10405614;28;20375;-72
2024/01/24 00:41:41;;;;;;;0.10;0.10;;;;;;;-145.06;100.00;59566.88;10407396;28;20029;-72
2024/01/24 00:46:42;;;;;;;0.00;0.00;;;;;;;-145.06;100.00;59333.66;10405944;28;20033;-72
2024/01/24 00:51:42;;;;;;;0.00;0.00;;;;;;;-145.06;100.00;59591.22;10407494;28;20013;-73
2024/01/24 00:56:42;;;;;;;0.10;0.10;;;;;;;-145.06;100.00;60175.34;10405681;28;20258;-73
2024/01/24 01:01:43;;;;;;;0.10;0.10;;;;;;;-145.06;100.00;60313.28;10406660;28;20021;-72
2024/01/24 01:06:43;;;;;;;0.10;0.10;;;;;;;-145.06;100.00;60710.88;10406547;28;20014;-73
2024/01/24 01:11:43;;;;;;;0.10;0.10;;;;;;;-145.06;100.00;61143.00;10406569;28;20026;-73
2024/01/24 01:16:43;;;;;;;0.10;0.10;;;;;;;-145.06;100.00;61487.91;10406763;28;20406;-73
2024/01/24 01:21:44;;;;;;;0.10;0.10;;;;;;;-145.06;100.00;62183.94;10413464;28;20518;-73
2024/01/24 01:26:44;;;;;;;0.10;0.10;;;;;;;-145.06;100.00;62553.31;10414355;28;20021;-73
2024/01/24 01:31:44;;;;;;;0.00;0.00;;;;;;;-145.06;100.00;62620.28;10414429;28;20021;-72
2024/01/24 01:36:45;;;;;;;0.10;0.10;;;;;;;-145.06;100.00;62149.44;10413553;28;20028;-73
2024/01/24 01:41:46;;;;;;;0.10;0.10;;;;;;;-145.06;100.00;62279.31;10414284;28;20039;-73
2024/01/24 01:46:47;;;;;;;0.00;0.00;;;;;;;-145.06;100.00;62547.22;10413304;28;20068;-73
2024/01/24 01:51:51;;;;;;;0.10;0.10;;;;;;;-145.06;100.00;62293.53;10413737;28;20414;-73
2024/01/24 01:56:51;;;;;;;0.00;0.00;;;;;;;-145.06;100.00;61999.25;10411275;28;20025;-72
2024/01/24 02:01:54;;;;;;;0.00;0.00;;;;;;;-145.06;100.00;62017.53;10413458;28;20068;-73
2024/01/24 02:06:55;;;;;;;0.00;0.00;;;;;;;-145.06;100.00;61268.78;10408924;28;20018;-72
2024/01/24 02:11:55;;;;;;;0.08;0.08;;;;;;;-145.06;100.00;61467.63;10411783;28;20022;-73
2024/01/24 02:16:56;;;;;;;0.00;0.00;;;;;;;-145.06;100.00;61392.56;10412680;28;20391;-73
2024/01/24 02:21:56;;;;;;;0.10;0.10;;;;;;;-145.06;100.00;61420.97;10412437;28;20021;-73
2024/01/24 02:26:56;;;;;;;0.00;0.00;;;;;;;-145.06;100.00;61623.88;10411902;28;20025;-72
2024/01/24 02:31:56;;;;;;;0.10;0.10;;;;;;;-145.06;100.00;61108.50;10411752;28;20017;-72
2024/01/24 02:36:57;;;;;;;0.00;0.00;;;;;;;-145.06;100.00;60181.44;10412590;28;20029;-73
2024/01/24 02:41:57;;;;;;;0.10;0.10;;;;;;;-145.06;100.00;59406.66;10414154;28;20032;-73
2024/01/24 02:46:57;;;;;;;0.00;0.00;;;;;;;-145.06;100.00;58017.75;10419416;28;20264;-72
2024/01/24 02:52:02;;;;;;;0.10;0.10;;;;;;;-145.06;100.00;56955.59;10423685;28;20082;-72
2024/01/24 02:57:02;;;;;;;0.10;0.10;;;;;;;-145.06;100.00;57006.28;10414125;28;20531;-73
2024/01/24 03:02:02;;;;;;;0.00;0.00;;;;;;;-145.06;100.00;57206.94;10410622;28;20037;-73
2024/01/24 03:07:03;;;;;;;0.10;0.10;;;;;;;-145.06;100.00;57831.25;10410312;28;20072;-73
2024/01/24 03:12:04;;;;;;;0.00;0.00;;;;;;;-145.06;100.00;58514.47;10408973;28;20060;-74
2024/01/24 03:17:04;;;;;;;0.00;0.00;;;;;;;-145.06;100.00;58694.91;10408362;28;20274;-74
2024/01/24 03:22:05;;;;;;;0.10;0.10;;;;;;;-145.06;100.00;59007.19;10409887;28;20039;-73
2024/01/24 03:27:05;;;;;;;0.00;0.00;;;;;;;-145.06;100.00;70582.28;10409184;28;20018;-73
2024/01/24 03:32:06;;;;;;;0.10;0.10;;;;;;;-145.06;100.00;55972.78;10409587;28;20029;-72
2024/01/24 03:37:06;;;;;;;0.10;0.10;;;;;;;-145.06;100.00;54311.63;10409946;28;20391;-72
2024/01/24 03:42:06;;;;;;;0.08;0.08;;;;;;;-145.06;100.00;54054.41;10406328;28;20034;-72
2024/01/24 03:47:07;;;;;;;0.00;0.00;;;;;;;-145.06;100.00;54019.97;10412340;28;20479;-72
2024/01/24 03:52:07;;;;;;;0.00;0.00;;;;;;;-145.06;100.00;54019.97;10412907;28;20021;-72
2024/01/24 03:57:08;;;;;;;0.00;0.00;;;;;;;-145.06;100.00;53839.72;10411368;28;20276;-71
2024/01/24 04:02:08;;;;;;;0.10;0.10;;;;;;;-145.06;100.00;53766.81;10411420;28;20757;-71
2024/01/24 04:07:08;;;;;;;0.03;0.03;;;;;;;-145.06;100.00;53799.22;10410924;28;20746;-71
2024/01/24 04:12:08;;;;;;;0.00;0.00;;;;;;;-145.06;100.00;53839.72;10414806;28;20025;-71
2024/01/24 04:17:09;;;;;;;0.10;0.10;;;;;;;-145.06;100.00;53920.75;10442337;28;20475;-71
2024/01/24 04:22:09;;;;;;;0.10;0.10;;;;;;;-145.06;100.00;54184.03;10410584;28;20517;-71
2024/01/24 04:27:09;;;;;;;0.10;0.10;;;;;;;-145.06;100.00;54352.13;10408216;28;20434;-71
2024/01/24 04:32:09;;;;;;;0.00;0.00;;;;;;;-145.06;100.00;54321.75;10406796;28;20035;-71
2024/01/24 04:37:10;;;;;;;0.10;0.10;;;;;;;-145.06;100.00;54204.28;10407675;28;20220;-71
2024/01/24 04:42:10;;;;;;;0.10;0.10;;;;;;;-145.06;100.00;55055.00;10407215;28;20030;-72
2024/01/24 04:47:13;;;;;;;0.10;0.10;;;;;;;-145.06;100.00;54526.31;10422171;28;20022;-71
2024/01/24 04:52:16;;;;;;;0.10;0.10;;;;;;;-145.06;100.00;54204.28;10408332;28;20037;-71
2024/01/24 04:57:16;;;;;;;0.10;0.10;;;;;;;-145.06;100.00;54062.50;10415494;28;20433;-71
2024/01/24 05:02:16;;;;;;;0.10;0.10;;;;;;;-145.06;100.00;53957.19;10429566;28;20021;-71
2024/01/24 05:07:17;;;;;;;0.10;0.10;;;;;;;-145.06;100.00;53857.97;10441909;28;20024;-72
2024/01/24 05:12:17;;;;;;;0.00;0.00;;;;;;;-145.06;100.00;53807.31;10426748;28;20033;-72
2024/01/24 05:17:17;;;;;;;0.10;0.10;;;;;;;-145.06;100.00;53756.69;10454608;28;20032;-71
2024/01/24 05:22:18;;;;;;;0.10;0.10;;;;;;;-145.06;100.00;53746.56;10459704;28;20025;-71
2024/01/24 05:27:18;;;;;;;0.03;0.03;;;;;;;-145.06;100.00;53744.56;10458285;28;20025;-72
2024/01/24 05:32:18;;;;;;;0.00;0.00;;;;;;;-145.06;100.00;53697.97;10453999;28;20022;-71
2024/01/24 05:37:19;;;;;;;0.00;0.00;;;;;;;-145.06;100.00;53744.56;10428516;28;20048;-71
2024/01/24 05:42:19;;;;;;;0.10;0.10;;;;;;;-145.06;100.00;53718.22;10459168;28;20036;-71
2024/01/24 05:47:20;;;;;;;0.10;0.10;;;;;;;-145.06;100.00;53744.56;10459013;28;20017;-71
2024/01/24 05:52:20;;;;;;;0.00;0.00;;;;;;;-145.06;100.00;53746.56;10459308;28;20021;-71
2024/01/24 05:57:21;;;;;;;0.10;0.10;;;;;;;-145.06;100.00;53716.19;10458635;28;20079;-71
2024/01/24 06:02:22;;;;;;;0.00;0.00;;;;;;;-145.06;100.00;53728.34;10456939;28;20036;-71
2024/01/24 06:07:22;;;;;;;0.10;0.10;;;;;;;-145.06;100.00;53754.69;10457147;28;20356;-72
2024/01/24 06:12:22;;;;;;;0.10;0.10;;;;;;;-145.06;100.00;53766.81;10458237;28;20033;-71
2024/01/24 06:17:23;;;;;;;0.08;0.08;;;;;;;-145.06;100.00;53774.94;10457976;28;20496;-71
2024/01/24 06:22:23;;;;;;;0.10;0.10;;;;;;;-145.06;100.00;53791.13;10454026;28;20033;-71
2024/01/24 06:27:23;;;;;;;0.10;0.10;;;;;;;-145.06;100.00;53766.81;10438128;28;20025;-71
2024/01/24 06:32:24;;;;;;;0.10;0.10;;;;;;;-145.06;100.00;53760.75;10416118;28;20322;-71
2024/01/24 06:37:24;;;;;;;0.10;0.10;;;;;;;-145.06;100.00;53770.88;10418601;28;20427;-70
2024/01/24 06:42:25;;;;;;;0.00;0.00;;;;;;;-145.06;100.00;53785.06;10418021;28;20052;-71
2024/01/24 06:47:25;;;;;;;0.10;0.10;;;;;;;-145.06;100.00;53793.16;10418581;28;20546;-70
2024/01/24 06:52:25;;;;;;;0.10;0.10;;;;;;;-145.06;100.00;53787.06;10415294;28;20017;-71
2024/01/24 06:57:26;;;;;;;0.10;0.10;;;;;;;-145.06;100.00;53797.22;10414953;28;20376;-70
2024/01/24 07:02:26;;;;;;;0.10;0.10;;;;;;;-145.06;100.00;53801.25;10416376;28;20310;-70
2024/01/24 07:07:26;;;;;;;0.10;0.10;;;;;;;-145.06;100.00;53799.22;10417288;28;20044;-71
2024/01/24 07:12:26;;;;;;;0.10;0.10;;;;;;;-145.06;100.00;53783.03;10435844;28;20080;-70
2024/01/24 07:17:27;;;;;;;0.00;0.00;;;;;;;-145.06;100.00;53815.44;10417373;28;20025;-71
2024/01/24 07:22:27;;;;;;;0.10;0.10;;;;;;;-145.06;100.00;53811.38;10422150;28;20025;-71
2024/01/24 07:27:29;;;;;;;0.00;0.00;;;;;;;-145.06;100.00;53847.84;10445062;28;20029;-70
2024/01/24 07:32:30;;;;;;;0.10;0.10;;;;;;;-145.06;100.00;53817.47;10413740;28;20448;-71
2024/01/24 07:37:31;;;;;;;0.10;0.10;;;;;;;-145.06;100.00;53827.59;10414267;28;20060;-71
2024/01/24 07:42:31;;;;;;;0.10;0.10;;;;;;;-145.06;100.00;53853.91;10413468;28;20380;-71
2024/01/24 07:47:32;;;;;;;0.10;0.10;;;;;;;-145.06;100.00;53833.66;10422255;28;20021;-71
2024/01/24 07:52:32;;;;;;;0.00;0.00;;;;;;;-145.06;100.00;53870.09;10413365;28;20021;-70
2024/01/24 07:57:32;;;;;;;0.10;0.10;;;;;;;-145.06;100.00;53833.66;10416010;28;20025;-70
2024/01/24 08:02:33;;;;;;;0.00;0.00;;;;;;;-145.06;100.00;53894.41;10418116;28;20017;-71
2024/01/24 08:07:33;;;;;;;0.10;0.10;;;;;;;-145.06;100.00;53884.28;10411399;28;20068;-70
2024/01/24 08:12:34;;;;;;;0.10;0.10;;;;;;;-145.06;99.43;53868.09;10411229;28;20291;-71
2024/01/24 08:17:36;;;;;;;0.05;0.05;;;;;;;-145.06;98.06;53876.19;10412278;28;20025;-71
2024/01/24 08:22:37;;;;;;;0.10;0.10;;;;;;;-145.06;96.46;53914.66;10412180;28;20017;-72
2024/01/24 08:27:38;;;;;;;0.10;0.10;;;;;;;-145.06;95.26;53908.59;10411603;28;20021;-71
2024/01/24 08:32:40;;;;;;;0.10;0.10;;;;;;;-145.06;95.27;53908.59;10412184;28;20400;-71
2024/01/24 08:37:40;;;;;;;0.10;0.10;;;;;;;-145.06;94.71;53916.69;10411278;28;20034;-71
2024/01/24 08:42:42;;;;;;;0.10;0.10;;;;;;;-145.06;94.48;53938.97;10411906;28;20021;-72
2024/01/24 08:47:43;;;;;;;0.10;0.10;;;;;;;-145.06;93.86;53904.53;10411783;28;20115;-71
2024/01/24 08:52:44;;;;;;;0.10;0.10;;;;;;;-145.06;93.88;53932.88;10411727;28;20033;-71
2024/01/24 08:57:44;;;;;;;0.00;0.00;;;;;;;-145.06;93.23;53928.84;10410427;28;20025;-71
2024/01/24 09:02:44;;;;;;;0.10;0.10;;;;;;;-145.06;94.06;53932.88;10412087;28;20441;-71
2024/01/24 09:07:45;;;;;;;0.00;0.00;;;;;;;-145.06;94.21;53928.84;10411391;28;20104;-71
2024/01/24 09:12:45;;;;;;;0.10;0.10;;;;;;;-145.06;93.26;53949.09;10411177;28;20029;-71
2024/01/24 09:17:45;;;;;;;0.10;0.10;;;;;;;-145.06;93.56;53971.38;10411202;28;20030;-72
2024/01/24 09:22:46;;;;;;;0.10;0.10;;;;;;;-145.06;93.62;53934.91;10411031;28;20029;-72
2024/01/24 09:27:46;;;;;;;0.03;0.03;;;;;;;-145.06;93.19;53949.09;10411024;28;20268;-72
2024/01/24 09:32:46;;;;;;;0.00;0.00;;;;;;;-145.06;93.75;53947.06;10411081;28;20025;-71
2024/01/24 09:37:46;;;;;;;0.10;0.10;;;;;;;-145.06;93.23;53961.25;10410901;28;20325;-72
2024/01/24 09:42:47;;;;;;;0.10;0.10;;;;;;;-145.06;94.04;53951.13;10417735;28;20025;-71
2024/01/24 09:47:49;;;;;;;0.10;0.10;;;;;;;-145.06;93.23;53951.13;10418072;28;20032;-72
2024/01/24 09:52:53;;;;;;;0.10;0.10;;;;;;;-145.06;93.26;53977.44;10418097;28;20610;-72
2024/01/24 09:57:54;;;;;;;0.10;0.10;;;;;;;-145.06;93.03;53961.25;10416448;28;20032;-72
2024/01/24 10:02:54;;;;;;;0.00;0.00;;;;;;;-145.06;92.10;53955.16;10417578;28;20037;-72
2024/01/24 10:07:54;;;;;;;0.10;0.10;;;;;;;-145.06;91.85;53957.19;10417328;28;20360;-72
2024/01/24 10:12:55;;;;;;;0.10;0.10;;;;;;;-145.06;92.23;53932.88;10416938;28;20033;-72
2024/01/24 10:17:56;;;;;;;0.00;0.00;;;;;;;-145.06;92.30;53973.41;10416819;28;20471;-72
2024/01/24 10:22:56;;;;;;;0.00;0.00;;;;;;;-145.06;93.12;53981.50;10416810;28;20075;-73
2024/01/24 10:27:56;;;;;;;0.10;0.10;;;;;;;-145.06;93.41;54001.75;10416606;28;20064;-73
2024/01/24 10:32:58;;;;;;;0.00;0.00;;;;;;;-145.06;92.70;54017.94;10416421;28;20030;-73
2024/01/24 10:37:58;;;;;;;0.10;0.10;;;;;;;-145.06;92.54;53989.59;10416034;28;20104;-72
2024/01/24 10:43:08;;;;;;;0.00;0.00;;;;;;;-145.06;93.08;53983.53;10416016;28;20597;-72
2024/01/24 10:48:09;;;;;;;0.00;0.00;;;;;;;-145.06;93.92;53995.66;10415819;28;20402;-72
2024/01/24 10:53:14;;;;;;;0.10;0.10;;;;;;;-145.06;95.10;53983.53;10415079;28;20099;-72
2024/01/24 10:58:14;;;;;;;0.10;0.10;;;;;;;-145.06;96.09;53999.72;10415893;28;20123;-73
2024/01/24 11:03:15;;;;;;;0.10;0.10;;;;;;;-145.06;94.44;53997.69;10415251;28;20078;-71
2024/01/24 11:08:24;;;;;;;0.10;0.10;;;;;;;-145.06;95.90;53963.25;10415195;28;20021;-71
2024/01/24 11:13:24;;;;;;;0.10;0.10;;;;;;;-145.06;93.32;54001.75;10414549;28;20505;-72
2024/01/24 11:18:31;;;;;;;0.00;0.00;;;;;;;-145.06;92.34;53951.13;10414540;28;20037;-72
2024/01/24 11:23:50;;;;;;;0.10;0.10;;;;;;;-145.06;99.28;53981.50;10414520;28;20025;-72
2024/01/24 11:29:04;;;;;;;0.10;0.10;;;;;;;-145.06;100.00;53979.47;10414214;28;20097;-71
2024/01/24 11:34:11;;;;;;;0.00;0.00;;;;;;;-145.06;100.00;53997.69;10414223;28;20052;-71
2024/01/24 11:39:39;;;;;;;0.00;0.00;;;;;;;-145.06;100.00;53985.53;10413637;28;20025;-71
2024/01/24 11:44:41;;;;;;;0.00;0.00;;;;;;;-145.06;100.00;54009.84;10413398;28;20029;-71
2024/01/24 11:49:49;;;;;;;0.10;0.10;;;;;;;-145.06;100.00;54019.97;10413226;28;20024;-71
2024/01/24 11:54:52;;;;;;;0.00;0.00;;;;;;;-145.06;100.00;54040.22;10413306;28;20056;-72
2024/01/24 11:59:53;;;;;;;0.10;0.10;;;;;;;-145.06;99.87;54026.06;10412977;28;20101;-72
2024/01/24 12:04:53;;;;;;;0.10;0.10;;;;;;;-145.06;99.72;54028.06;10412065;28;20854;-72
2024/01/24 12:09:54;;;;;;;0.10;0.10;;;;;;;-145.06;97.96;54007.81;10430371;28;20541;-72
2024/01/24 12:14:55;;;;;;;0.00;0.00;;;;;;;-145.06;97.07;54038.19;10453773;28;20517;-71
2024/01/24 12:19:57;;;;;;;0.10;0.10;;;;;;;-145.06;95.71;54011.88;10453437;28;20036;-72
2024/01/24 12:25:00;;;;;;;0.00;0.00;;;;;;;-145.06;96.32;54054.41;10452118;28;20478;-71
2024/01/24 12:30:00;;;;;;;0.10;0.10;;;;;;;-145.06;96.69;54046.31;10453389;28;20390;-72
2024/01/24 12:35:01;;;;;;;0.10;0.10;;;;;;;-145.06;95.77;53999.72;10453221;28;20027;-72
2024/01/24 12:40:05;;;;;;;0.00;0.00;;;;;;;-145.06;95.67;54058.44;10453005;28;20278;-72
2024/01/24 12:45:13;;;;;;;0.10;0.10;;;;;;;-145.06;96.76;54044.28;10453092;28;20029;-72
2024/01/24 12:50:13;;;;;;;0.10;0.10;;;;;;;-145.06;96.65;54030.09;10452972;28;20410;-72
2024/01/24 12:55:14;;;;;;;0.10;0.10;;;;;;;-145.06;96.97;54050.34;10452936;28;20036;-72
2024/01/24 13:00:16;;;;;;;0.10;0.10;;;;;;;-145.06;97.70;54030.09;10452558;28;20394;-72
2024/01/24 13:05:18;;;;;;;0.10;0.10;;;;;;;-145.06;97.81;54050.34;10452609;28;20024;-72
2024/01/24 13:10:18;;;;;;;0.00;0.00;;;;;;;-145.06;98.53;54042.25;10452569;28;20020;-72
2024/01/24 13:15:19;;;;;;;0.10;0.10;;;;;;;-145.06;97.66;54034.16;10456569;28;20028;-72
2024/01/24 13:20:20;;;;;;;0.00;0.00;;;;;;;-145.06;98.42;54056.44;10460426;28;20028;-72
2024/01/24 13:25:20;;;;;;;0.10;0.10;;;;;;;-145.06;98.68;54026.06;10460074;28;20032;-72
2024/01/24 13:30:20;;;;;;;0.00;0.00;;;;;;;-145.06;98.54;54042.25;10460194;28;20021;-72
2024/01/24 13:35:20;;;;;;;0.00;0.00;;;;;;;-145.06;98.22;54026.06;10459836;28;20032;-72
2024/01/24 13:40:21;;;;;;;0.00;0.00;;;;;;;-145.06;98.87;54038.19;10459660;28;20104;-72
2024/01/24 13:45:22;;;;;;;0.10;0.10;;;;;;;-145.06;98.44;54017.94;10459526;28;20028;-72
2024/01/24 13:50:23;;;;;;;0.10;0.10;;;;;;;-145.06;98.25;54015.91;10459234;28;20028;-72
2024/01/24 13:55:23;;;;;;;0.00;0.00;;;;;;;-145.06;98.72;54046.31;10459125;28;20024;-72
2024/01/24 14:00:23;;;;;;;0.00;0.00;;;;;;;-145.06;98.62;54030.09;10458643;28;20497;-72
2024/01/24 14:05:23;;;;;;;0.05;0.05;;;;;;;-145.06;99.02;54058.44;10458701;28;20394;-71
2024/01/24 14:10:24;;;;;;;0.10;0.10;;;;;;;-145.06;99.34;54044.28;10458399;28;20024;-72
2024/01/24 14:15:24;;;;;;;0.10;0.10;;;;;;;-145.06;100.00;54034.16;10457128;28;20075;-72
2024/01/24 14:20:25;;;;;;;0.10;0.10;;;;;;;-145.06;100.00;54058.44;10457974;28;20226;-72
2024/01/24 14:25:25;;;;;;;0.10;0.10;;;;;;;-145.06;100.00;54076.69;10456877;28;20036;-72
2024/01/24 14:30:25;;;;;;;0.10;0.10;;;;;;;-145.06;100.00;54072.63;10457707;28;20474;-72
2024/01/24 14:35:27;;;;;;;0.10;0.10;;;;;;;-145.06;100.00;54062.50;10457836;28;20856;-72
2024/01/24 14:40:28;;;;;;;0.10;0.10;;;;;;;-145.06;100.00;54074.66;10457300;28;20029;-72
2024/01/24 14:45:28;;;;;;;0.10;0.10;;;;;;;-145.06;100.00;54058.44;10457190;28;20413;-72
2024/01/24 14:50:29;;;;;;;0.05;0.05;;;;;;;-145.06;100.00;54074.66;10456922;28;20425;-72
2024/01/24 14:55:30;;;;;;;0.10;0.10;;;;;;;-145.06;100.00;54082.75;10456800;28;20478;-71
2024/01/24 15:00:31;;;;;;;0.10;0.10;;;;;;;-145.06;100.00;54078.72;10456491;28;20025;-72
2024/01/24 15:05:31;;;;;;;0.00;0.00;;;;;;;-145.06;100.00;54062.50;10456496;28;20025;-72
2024/01/24 15:10:31;;;;;;;0.00;0.00;;;;;;;-145.06;100.00;54070.59;10456031;28;20274;-72
2024/01/24 15:15:33;;;;;;;0.10;0.10;;;;;;;-145.06;100.00;54098.97;10456189;28;20028;-72
2024/01/24 15:20:33;;;;;;;0.10;0.10;;;;;;;-145.06;100.00;54096.94;10455630;28;20024;-72
2024/01/24 15:25:35;;;;;;;0.10;0.10;;;;;;;-145.06;100.00;54109.09;10455507;28;20031;-72
2024/01/24 15:30:35;;;;;;;0.10;0.10;;;;;;;-145.06;100.00;54113.13;10455358;28;20510;-71
2024/01/24 15:35:36;;;;;;;0.10;0.10;;;;;;;-145.06;100.00;54107.06;10455309;28;20024;-71
2024/01/24 15:40:36;;;;;;;0.00;0.00;;;;;;;-145.06;100.00;54115.16;10454777;28;20390;-71
2024/01/24 15:45:36;;;;;;;0.10;0.10;;;;;;;-145.06;100.00;54141.50;10454880;28;20025;-71
2024/01/24 15:50:36;;;;;;;0.10;0.10;;;;;;;-145.06;100.00;54109.09;10453433;28;20078;-71
2024/01/24 15:55:37;;;;;;;0.00;0.00;;;;;;;-145.06;100.00;54135.41;10454549;28;20569;-71
2024/01/24 16:00:37;;;;;;;0.10;0.10;;;;;;;-145.06;100.00;54096.94;10454231;28;20482;-72
2024/01/24 16:05:45;;;;;;;0.10;0.10;;;;;;;-145.06;100.00;54125.28;10454063;28;20082;-71
2024/01/24 16:10:47;;;;;;;0.10;0.10;;;;;;;-145.06;100.00;54086.81;10454064;28;20051;-71
2024/01/24 16:15:48;;;;;;;0.00;0.00;;;;;;;-145.06;100.00;54107.06;10452479;28;20016;-71
2024/01/24 16:20:49;;;;;;;0.10;0.10;;;;;;;-145.06;100.00;54113.13;10420243;28;20026;-71
2024/01/24 16:25:49;;;;;;;0.10;0.10;;;;;;;-145.06;100.00;54123.25;10412196;28;20033;-71
2024/01/24 16:30:50;;;;;;;0.00;0.00;;;;;;;-145.06;100.00;54135.41;10412164;28;20391;-71
2024/01/24 16:35:50;;;;;;;0.00;0.00;;;;;;;-145.06;100.00;54127.31;10411973;28;20022;-71
2024/01/24 16:40:51;;;;;;;0.10;0.10;;;;;;;-145.06;100.00;54109.09;10411702;28;20533;-71
2024/01/24 16:45:52;;;;;;;0.00;0.00;;;;;;;-145.06;100.00;54090.84;10410022;28;20123;-73
2024/01/24 16:50:52;;;;;;;0.05;0.05;;;;;;;-145.06;100.00;54121.22;10413684;28;20063;-69
2024/01/24 16:55:52;;;;;;;0.10;0.10;;;;;;;-145.06;100.00;54129.34;10416537;28;20021;-69
2024/01/24 17:00:53;;;;;;;0.28;0.10;;;;;;;-145.06;100.00;54131.34;10417462;28;20356;-72
2024/01/24 17:05:53;;;;;;;0.00;0.00;;;;;;;-145.06;100.00;54080.72;10415636;28;20022;-69
2024/01/24 17:10:53;;;;;;;0.00;0.00;;;;;;;-145.06;100.00;54098.97;10418150;28;20056;-70
2024/01/24 17:15:54;;;;;;;0.10;0.10;;;;;;;-145.06;100.00;54109.09;10419053;28;20156;-70
2024/01/24 17:20:54;;;;;;;0.00;0.00;;;;;;;-145.06;100.00;54125.28;10425280;28;20509;-71
2024/01/24 17:25:54;;;;;;;0.03;0.03;;;;;;;-145.06;100.00;54133.38;10419090;28;20394;-74
2024/01/24 17:30:55;;;;;;;0.10;0.10;;;;;;;-145.06;100.00;54147.56;10418916;28;20467;-73
2024/01/24 17:35:56;;;;;;;0.10;0.10;;;;;;;-145.06;100.00;54127.31;10418732;28;20021;-73
2024/01/24 17:40:56;;;;;;;0.00;0.00;;;;;;;-145.06;100.00;54131.34;10417743;28;20483;-74
2024/01/24 17:45:56;;;;;;;0.00;0.00;;;;;;;-145.06;100.00;54098.97;10422131;28;20021;-73
2024/01/24 17:50:57;;;;;;;0.10;0.10;;;;;;;-145.06;100.00;54123.25;10450941;28;20029;-71
2024/01/24 17:55:57;;;;;;;0.10;0.10;;;;;;;-145.06;100.00;54113.13;10411273;28;20068;-68
2024/01/24 18:00:57;;;;;;;0.10;0.10;;;;;;;-145.06;100.00;54111.09;10434924;28;20279;-68
2024/01/24 18:05:58;;;;;;;0.00;0.00;;;;;;;-145.06;100.00;54123.25;10418800;28;20272;-68
2024/01/24 18:10:58;;;;;;;0.00;0.00;;;;;;;-145.06;100.00;54137.44;10413712;28;20487;-68
2024/01/24 18:15:58;;;;;;;0.00;0.00;;;;;;;-145.06;100.00;54155.66;10416009;28;20505;-73
2024/01/24 18:20:59;;;;;;;0.00;0.00;;;;;;;-145.06;100.00;54145.53;10419179;28;20472;-68
2024/01/24 18:25:59;;;;;;;0.00;0.00;;;;;;;-145.06;100.00;54133.38;10410001;28;20032;-67
2024/01/24 18:30:59;;;;;;;0.00;0.00;;;;;;;-145.06;100.00;54163.75;10417809;28;20514;-65
2024/01/24 18:35:59;;;;;;;0.10;0.10;;;;;;;-145.06;100.00;54141.50;10416886;28;20036;-66
2024/01/24 18:41:00;;;;;;;0.10;0.10;;;;;;;-145.06;100.00;54157.69;10409346;28;20112;-66
2024/01/24 18:46:00;;;;;;;0.03;0.03;;;;;;;-145.06;100.00;54159.72;10408209;28;20021;-66
2024/01/24 18:51:01;;;;;;;0.10;0.10;;;;;;;-145.06;100.00;54165.78;10408701;28;20063;-66
2024/01/24 18:56:05;;;;;;;0.10;0.10;;;;;;;-145.06;100.00;54184.03;10408596;28;20378;-66
2024/01/24 19:01:05;;;;;;;0.00;0.00;;;;;;;-145.06;100.00;54161.75;10408798;28;20053;-66
2024/01/24 19:06:07;;;;;;;0.00;0.00;;;;;;;-145.06;100.00;54151.63;10408726;28;20486;-67
2024/01/24 19:11:08;;;;;;;0.00;0.00;;;;;;;-145.06;100.00;54179.97;10405505;28;20018;-66
2024/01/24 19:16:08;;;;;;;0.00;0.00;;;;;;;-145.06;100.00;54165.78;10410781;28;20208;-66
2024/01/24 19:21:08;;;;;;;0.00;0.00;;;;;;;-145.06;100.00;54163.75;10416486;28;20508;-66
2024/01/24 19:26:09;;;;;;;0.03;0.03;;;;;;;-145.06;100.00;54175.91;10403538;28;20624;-66
2024/01/24 19:31:09;;;;;;;0.03;0.03;;;;;;;-145.06;100.00;54186.03;10407897;28;20394;-66
2024/01/24 19:36:09;;;;;;;0.08;0.08;;;;;;;-145.06;100.00;54169.84;10408953;28;20499;-66
2024/01/24 19:41:09;;;;;;;0.00;0.00;;;;;;;-145.06;100.00;54171.88;10404524;28;20026;-67
2024/01/24 19:46:12;;;;;;;0.00;0.00;;;;;;;-145.06;100.00;54163.75;10404300;28;20024;-66
2024/01/24 19:51:12;;;;;;;0.00;0.00;;;;;;;-145.06;100.00;54184.03;10407793;28;20024;-66
2024/01/24 19:56:13;;;;;;;0.00;0.00;;;;;;;-145.06;100.00;54167.81;10406714;28;20479;-66
2024/01/24 20:01:13;;;;;;;0.10;0.10;;;;;;;-145.06;100.00;54202.25;10408865;28;20310;-66
2024/01/24 20:06:15;;;;;;;0.10;0.10;;;;;;;-145.06;100.00;54188.06;10402485;28;20041;-67
2024/01/24 20:11:16;;;;;;;0.10;0.10;;;;;;;-145.06;100.00;54210.34;10409527;28;20025;-66
2024/01/24 20:16:16;;;;;;;0.03;0.03;;;;;;;-145.06;100.00;54169.84;10408404;28;20069;-67
2024/01/24 20:21:16;;;;;;;0.10;0.10;;;;;;;-145.06;100.00;54192.13;10406564;28;20060;-67
2024/01/24 20:26:18;;;;;;;0.00;0.00;;;;;;;-145.06;100.00;54173.91;10405736;28;20076;-67
2024/01/24 20:31:18;;;;;;;0.00;0.00;;;;;;;-145.06;100.00;54200.22;10402565;28;20123;-66
2024/01/24 20:36:20;;;;;;;0.00;0.00;;;;;;;-145.06;100.00;54198.19;10408037;28;20376;-66
2024/01/24 20:41:21;;;;;;;0.10;0.10;;;;;;;-145.06;100.00;54212.38;10402027;28;20025;-66
2024/01/24 20:46:21;;;;;;;0.00;0.00;;;;;;;-145.06;100.00;54202.25;10402762;28;20379;-66
2024/01/24 20:51:21;;;;;;;0.10;0.10;;;;;;;-145.06;100.00;54212.38;10407885;28;20014;-66
2024/01/24 20:56:22;;;;;;;0.00;0.00;;;;;;;-145.06;100.00;54212.38;10408172;28;20453;-67
2024/01/24 21:01:22;;;;;;;0.10;0.10;;;;;;;-145.06;100.00;54220.47;10408187;28;20018;-66
2024/01/24 21:06:27;;;;;;;0.00;0.00;;;;;;;-145.06;100.00;54184.03;10408422;28;20025;-66
2024/01/24 21:11:27;;;;;;;0.10;0.10;;;;;;;-145.06;100.00;54190.09;10408762;28;20026;-66
2024/01/24 21:16:28;;;;;;;0.00;0.00;;;;;;;-145.06;100.00;54190.09;10405205;28;20041;-66
2024/01/24 21:21:29;;;;;;;0.10;0.10;;;;;;;-145.06;100.00;54228.56;10406375;28;20028;-67
2024/01/24 21:26:29;;;;;;;0.10;0.10;;;;;;;-145.06;100.00;54232.63;10405163;28;20104;-66
2024/01/24 21:31:29;;;;;;;0.00;0.00;;;;;;;-145.06;100.00;54263.00;10408372;28;20064;-66
2024/01/24 21:36:29;;;;;;;0.00;0.00;;;;;;;-145.06;100.00;54228.56;10407624;28;20467;-66
2024/01/24 21:41:30;;;;;;;0.00;0.00;;;;;;;-145.06;100.00;54263.00;10412706;28;20026;-66
2024/01/24 21:46:30;;;;;;;0.00;0.00;;;;;;;-145.06;100.00;54242.75;10414745;28;20079;-66
2024/01/24 21:51:31;;;;;;;0.00;0.00;;;;;;;-145.06;100.00;54230.59;10415659;28;20153;-65
2024/01/24 21:56:31;;;;;;;0.10;0.10;;;;;;;-145.06;100.00;54258.97;10412790;28;20268;-66
2024/01/24 22:01:36;;;;;;;0.00;0.00;;;;;;;-145.06;100.00;54281.22;10410029;28;20022;-66
2024/01/24 22:06:36;;;;;;;0.10;0.10;;;;;;;-145.06;100.00;54281.22;10411827;28;20029;-67
2024/01/24 22:11:37;;;;;;;0.10;0.10;;;;;;;-145.06;100.00;54273.13;10414355;28;20037;-66
2024/01/24 22:16:37;;;;;;;0.00;0.00;;;;;;;-145.06;100.00;54279.22;10413702;28;20021;-66
2024/01/24 22:21:41;;;;;;;0.10;0.10;;;;;;;-145.06;100.00;54265.03;10413861;28;20026;-67
2024/01/24 22:26:43;;;;;;;0.00;0.00;;;;;;;-145.06;100.00;54260.97;10414608;28;20471;-66
2024/01/24 22:31:43;;;;;;;0.00;0.00;;;;;;;-145.06;100.00;54287.31;10414198;28;20479;-66
2024/01/24 22:36:44;;;;;;;0.00;0.00;;;;;;;-145.06;100.00;54301.50;10413962;28;20069;-67